LEXJ/SDR METAR and TAF weather

Enter ICAO airport designator
Station Type Date Time Source
LEXJ METAR 2019/10/23 07:44 UTC NOAA

LEXJ 230744Z 29004KT 3500 RA SCT005 BKN012 OVC022 15/15 Q1005


Station Type Date Time Source
LEXJ Decoded METAR 2019/10/23 07:44 UTC NOAA

Santander / Parayas, Spain (LEXJ) 43-26N 003-49W 9M
Oct 23, 2019 - 03:44 AM EDT / 2019.10.23 0744 UTC
Wind: from the WNW (290 degrees) at 5 MPH (4 KT):0
Visibility: 2 mile(s):0
Sky conditions: overcast
Weather: rain
Temperature: 59 F (15 C)
Dew Point: 59 F (15 C)
Relative Humidity: 100%
Pressure (altimeter): 29.68 in. Hg (1005 hPa)
ob: LEXJ 230744Z 29004KT 3500 RA SCT005 BKN012 OVC022 15/15 Q1005
cycle: 7

Station Type Date Time Source
LEXJ TAF 2019/10/23 03:29 UTC NOAA

TAF LEXJ 230200Z 2303/2403 33009KT 9999 BKN025 TX16/2315Z TN13/2304Z
BECMG 2308/2310 27015KT
TEMPO 2310/2321 28018G35KT
TEMPO 2303/2312 3000 -RA BR BKN014
TEMPO 2303/2324 3000 RA BKN005 PROB40
TEMPO 2312/2324 1500 +RA
TEMPO 2312/2324 3000 SHRA SCT020TCU PROB40
TEMPO 2315/2321 3000 TS SHRA SCT030CB

Example: see airport list